Time;durP1;ratioP1;P1;durP2;ratioP2;P2;SDS_P1;SDS_P2;PMS_P1;PMS_P2;Temp;Humidity;BMP_temperature;BMP_pressure;BME280_temperature;BME280_humidity;BME280_pressure;Samples;Min_cycle;Max_cycle;Signal;HPM_P1;HPM_P2
2022/04/12 00:01:05;;;;;;;;;;;;;;;14.19;36.82;100029.69;4980850;28;6875;-74
2022/04/12 00:03:32;;;;;;;;;;;;;;;14.15;36.98;100027.03;4998169;28;6971;-74
2022/04/12 00:05:57;;;;;;;;;;;;;;;14.13;36.97;100027.81;4981817;28;6982;-74
2022/04/12 00:08:23;;;;;;;;;;;;;;;14.10;37.50;100033.75;4985214;28;6819;-74
2022/04/12 00:10:49;;;;;;;;;;;;;;;14.08;37.77;100031.94;4966298;28;6879;-74
2022/04/12 00:13:19;;;;;;;;;;;;;;;14.03;37.87;100024.97;4980700;28;6950;-74
2022/04/12 00:15:48;;;;;;;;;;;;;;;14.01;37.46;100023.19;4982054;28;7237;-74
2022/04/12 00:20:59;;;;;;;;;;;;;;;13.95;37.81;100023.88;4981825;28;6836;-74
2022/04/12 00:23:25;;;;;;;;;;;;;;;13.93;37.83;100029.81;4983384;28;6804;-74
2022/04/12 00:25:53;;;;;;;;;;;;;;;13.91;37.84;100028.91;4947915;28;6899;-73
2022/04/12 00:28:20;;;;;;;;;;;;;;;13.88;37.90;100021.97;4984777;28;6804;-73
2022/04/12 00:30:46;;;;;;;;;;;;;;;13.85;38.21;100017.59;4998197;28;6792;-73
2022/04/12 00:33:11;;;;;;;;;;;;;;;13.81;37.80;100008.03;4982529;28;6792;-73
2022/04/12 00:35:38;;;;;;;;;;;;;;;13.79;38.55;100004.56;4981302;28;6784;-73
2022/04/12 00:38:17;;;;;;;;;;;;;;;13.78;37.91;100012.22;4982843;28;8203;-74
2022/04/12 00:40:44;;;;;;;;;;;;;;;13.75;38.39;100013.00;4966686;28;6808;-74
2022/04/12 00:43:10;;;;;;;;;;;;;;;13.71;38.52;100006.03;4979960;28;6824;-74
2022/04/12 00:45:35;;;;;;;;;;;;;;;13.68;38.92;100009.38;4980763;28;7021;-74
2022/04/12 00:48:02;;;;;;;;;;;;;;;13.65;38.34;100011.88;4980914;28;6796;-74
2022/04/12 00:50:28;;;;;;;;;;;;;;;13.61;39.04;100000.63;4995665;28;7039;-74
2022/04/12 00:52:56;;;;;;;;;;;;;;;13.59;39.19;100011.69;4964599;28;7681;-74
2022/04/12 00:55:22;;;;;;;;;;;;;;;13.57;39.45;100005.63;4982780;28;6816;-74
2022/04/12 00:57:49;;;;;;;;;;;;;;;13.55;39.10;99997.00;4983353;28;7161;-74
2022/04/12 01:00:18;;;;;;;;;;;;;;;13.54;38.48;99992.69;4980541;28;6788;-74
2022/04/12 01:02:45;;;;;;;;;;;;;;;13.53;39.05;99981.50;4980719;28;6951;-74
2022/04/12 01:05:11;;;;;;;;;;;;;;;13.51;38.37;99982.28;4974739;28;6788;-74
2022/04/12 01:07:37;;;;;;;;;;;;;;;13.50;39.20;99985.69;4978594;28;6865;-74
2022/04/12 01:10:06;;;;;;;;;;;;;;;13.50;39.42;99972.81;4980850;28;6800;-74
2022/04/12 01:12:41;;;;;;;;;;;;;;;13.48;38.99;99965.06;4995527;28;6795;-74
2022/04/12 01:15:22;;;;;;;;;;;;;;;13.46;39.63;99961.53;4980460;28;6807;-74
2022/04/12 01:17:49;;;;;;;;;;;;;;;13.45;38.81;99958.09;4977334;28;7596;-74
2022/04/12 01:20:18;;;;;;;;;;;;;;;13.45;39.40;99959.78;4983589;28;7011;-74
2022/04/12 01:22:57;;;;;;;;;;;;;;;13.46;39.60;99975.28;4978064;28;6812;-74
2022/04/12 01:25:23;;;;;;;;;;;;;;;13.45;39.43;99968.41;4981839;28;6952;-74
2022/04/12 01:27:49;;;;;;;;;;;;;;;13.46;40.09;99970.16;4980613;28;9367;-74
2022/04/12 01:30:15;;;;;;;;;;;;;;;13.49;40.10;99973.63;4977351;28;6859;-74
2022/04/12 01:32:41;;;;;;;;;;;;;;;13.50;39.25;99970.22;4975063;28;7226;-74
2022/04/12 01:35:08;;;;;;;;;;;;;;;13.54;39.68;99979.81;4974899;28;7027;-74
2022/04/12 01:37:34;;;;;;;;;;;;;;;13.56;40.05;99980.72;4982140;28;7186;-74
2022/04/12 01:40:00;;;;;;;;;;;;;;;13.58;40.22;99982.50;4992169;28;6968;-74
2022/04/12 01:42:25;;;;;;;;;;;;;;;13.59;39.62;99978.22;4977849;28;8151;-74
2022/04/12 01:44:51;;;;;;;;;;;;;;;13.61;40.03;99973.97;4978977;28;6851;-75
2022/04/12 01:47:17;;;;;;;;;;;;;;;13.65;40.02;99974.94;4966277;28;6796;-74
2022/04/12 01:49:44;;;;;;;;;;;;;;;13.68;39.28;99973.34;4984263;28;8309;-74
2022/04/12 01:52:15;;;;;;;;;;;;;;;13.72;39.88;99975.19;4978142;28;6808;-74
2022/04/12 01:54:41;;;;;;;;;;;;;;;13.77;39.85;99980.47;4979602;28;6816;-74
2022/04/12 01:57:06;;;;;;;;;;;;;;;13.81;39.24;99983.97;4980351;28;6887;-74
2022/04/12 01:59:32;;;;;;;;;;;;;;;13.84;39.91;99991.81;4979541;28;7157;-74
2022/04/12 02:01:58;;;;;;;;;;;;;;;13.88;39.29;99994.50;4997446;28;6800;-74
2022/04/12 02:04:24;;;;;;;;;;;;;;;13.90;39.54;99986.81;4977124;28;6792;-74
2022/04/12 02:06:49;;;;;;;;;;;;;;;13.92;39.41;99989.44;4964485;28;6950;-74
2022/04/12 02:09:15;;;;;;;;;;;;;;;13.94;39.23;99987.78;4982673;28;6788;-74
2022/04/12 02:11:41;;;;;;;;;;;;;;;13.94;38.83;99983.50;4980951;28;7586;-74
2022/04/12 02:14:09;;;;;;;;;;;;;;;13.95;39.34;99980.09;4978357;28;6815;-74
2022/04/12 02:16:35;;;;;;;;;;;;;;;13.96;39.07;99979.25;4979309;28;7072;-74
2022/04/12 02:19:01;;;;;;;;;;;;;;;13.96;39.01;99971.53;4977446;28;8484;-74
2022/04/12 02:21:26;;;;;;;;;;;;;;;13.98;38.99;99972.44;4979883;28;6820;-74
2022/04/12 02:23:52;;;;;;;;;;;;;;;13.99;39.80;99976.75;4982701;28;6812;-74
2022/04/12 02:26:18;;;;;;;;;;;;;;;13.99;39.94;99966.44;4978551;28;6828;-74
2022/04/12 02:28:43;;;;;;;;;;;;;;;13.98;39.07;99964.72;4981885;28;6807;-74
2022/04/12 02:31:09;;;;;;;;;;;;;;;13.99;39.75;99963.88;4977313;28;7049;-74
2022/04/12 02:33:35;;;;;;;;;;;;;;;14.01;39.15;99966.50;4995056;28;6879;-74
2022/04/12 02:36:00;;;;;;;;;;;;;;;14.02;40.08;99971.72;4961525;28;6886;-74
2022/04/12 02:38:26;;;;;;;;;;;;;;;14.05;39.03;99970.03;4998805;28;6791;-74
2022/04/12 02:40:52;;;;;;;;;;;;;;;14.06;39.06;99966.63;4980482;28;6779;-74
2022/04/12 02:43:17;;;;;;;;;;;;;;;14.04;39.13;99961.41;4981178;28;6791;-74
2022/04/12 02:45:43;;;;;;;;;;;;;;;14.03;39.19;99960.56;4980873;28;7137;-74
2022/04/12 02:48:10;;;;;;;;;;;;;;;14.00;39.76;99963.06;4998468;28;6891;-74
2022/04/12 02:50:36;;;;;;;;;;;;;;;13.98;39.58;99969.84;4982566;28;6816;-74
2022/04/12 02:53:02;;;;;;;;;;;;;;;13.94;39.94;99968.03;4979994;28;7695;-74
2022/04/12 02:55:27;;;;;;;;;;;;;;;13.90;39.47;99961.03;4979467;28;6823;-74
2022/04/12 02:57:53;;;;;;;;;;;;;;;13.86;40.67;99961.81;4981168;28;6862;-74
2022/04/12 03:00:19;;;;;;;;;;;;;;;13.82;40.30;99960.00;4995204;28;7076;-74
2022/04/12 03:02:46;;;;;;;;;;;;;;;13.80;39.84;99956.47;4989555;28;7247;-74
2022/04/12 03:05:12;;;;;;;;;;;;;;;13.75;39.83;99954.66;4990548;28;7149;-74
2022/04/12 03:07:38;;;;;;;;;;;;;;;13.73;40.54;99953.75;5004863;28;7020;-74
2022/04/12 03:10:05;;;;;;;;;;;;;;;13.70;41.02;99957.94;4990578;28;7170;-74
2022/04/12 03:12:30;;;;;;;;;;;;;;;13.65;40.73;99957.81;4968976;28;7022;-74
2022/04/12 03:15:02;;;;;;;;;;;;;;;13.60;40.84;99955.09;4990005;28;6867;-74
2022/04/12 03:17:28;;;;;;;;;;;;;;;13.53;41.30;99949.75;4971709;28;6827;-73
2022/04/12 03:19:54;;;;;;;;;;;;;;;13.46;40.90;99946.97;5006247;28;6804;-73
2022/04/12 03:22:20;;;;;;;;;;;;;;;13.39;40.71;99947.59;4989992;28;6887;-73
2022/04/12 03:24:45;;;;;;;;;;;;;;;13.32;40.89;99940.50;4989303;28;6815;-73
2022/04/12 03:27:11;;;;;;;;;;;;;;;13.25;41.47;99931.75;4992804;28;6808;-73
2022/04/12 03:29:37;;;;;;;;;;;;;;;13.18;41.59;99940.97;4991760;28;7257;-73
2022/04/12 03:32:06;;;;;;;;;;;;;;;13.11;41.35;99941.63;4988667;28;6883;-73
2022/04/12 03:34:32;;;;;;;;;;;;;;;13.04;41.35;99948.28;4993268;28;6811;-73
2022/04/12 03:36:58;;;;;;;;;;;;;;;12.98;41.43;99945.50;4976900;28;6792;-73
2022/04/12 03:39:25;;;;;;;;;;;;;;;12.91;41.78;99944.44;4992145;28;6796;-73
2022/04/12 03:41:52;;;;;;;;;;;;;;;12.83;41.50;99940.75;4977048;28;6832;-74
2022/04/12 03:44:18;;;;;;;;;;;;;;;12.78;41.52;99938.03;5009867;28;7259;-73
2022/04/12 03:46:45;;;;;;;;;;;;;;;12.74;42.04;99940.47;4960052;28;6860;-73
2022/04/12 03:49:10;;;;;;;;;;;;;;;12.70;41.92;99938.66;4995087;28;6808;-73
2022/04/12 03:51:37;;;;;;;;;;;;;;;12.63;42.20;99930.72;4992985;28;6799;-73
2022/04/12 03:54:04;;;;;;;;;;;;;;;12.58;42.33;99927.16;4989851;28;6983;-74
2022/04/12 03:56:30;;;;;;;;;;;;;;;12.53;42.64;99935.53;4991120;28;7185;-74
2022/04/12 03:58:58;;;;;;;;;;;;;;;12.47;42.42;99936.22;4990951;28;6800;-74
2022/04/12 04:01:28;;;;;;;;;;;;;;;12.45;42.43;99943.88;4992701;28;6811;-74
2022/04/12 04:03:58;;;;;;;;;;;;;;;12.42;43.27;99942.88;4994536;28;6969;-74
2022/04/12 04:06:27;;;;;;;;;;;;;;;12.38;42.71;99938.47;4991772;28;8206;-74
2022/04/12 04:08:53;;;;;;;;;;;;;;;12.33;42.94;99943.47;4988765;28;7378;-73
2022/04/12 04:11:18;;;;;;;;;;;;;;;12.31;43.34;99945.09;4996577;28;6780;-73
2022/04/12 04:13:45;;;;;;;;;;;;;;;12.27;43.07;99939.00;4978419;28;7333;-73
2022/04/12 04:16:11;;;;;;;;;;;;;;;12.26;43.74;99937.22;4974134;28;6982;-73
2022/04/12 04:18:38;;;;;;;;;;;;;;;12.23;43.04;99942.25;4987223;28;7015;-73
2022/04/12 04:21:05;;;;;;;;;;;;;;;12.19;43.29;99940.44;4975904;28;7208;-73
2022/04/12 04:23:30;;;;;;;;;;;;;;;12.15;43.53;99943.69;4991790;28;7324;-73
2022/04/12 04:25:56;;;;;;;;;;;;;;;12.11;43.92;99950.41;4977425;28;7994;-73
2022/04/12 04:28:22;;;;;;;;;;;;;;;12.07;43.55;99951.16;4995928;28;6784;-73
2022/04/12 04:30:50;;;;;;;;;;;;;;;12.05;43.50;99943.38;4993634;28;7073;-73
2022/04/12 04:33:18;;;;;;;;;;;;;;;12.02;43.73;99939.78;4991568;28;7196;-73
2022/04/12 04:35:53;;;;;;;;;;;;;;;12.00;43.82;99937.19;4993954;28;6803;-74
2022/04/12 04:38:18;;;;;;;;;;;;;;;11.97;44.29;99939.63;4993046;28;6804;-73
2022/04/12 04:40:44;;;;;;;;;;;;;;;11.94;44.59;99940.41;4994287;28;6791;-73
2022/04/12 04:43:10;;;;;;;;;;;;;;;11.94;44.25;99935.28;5011179;28;8564;-73
2022/04/12 04:45:36;;;;;;;;;;;;;;;11.95;44.01;99938.72;4997325;28;6787;-73
2022/04/12 04:48:04;;;;;;;;;;;;;;;11.96;44.20;99930.19;4995542;28;6978;-73
2022/04/12 04:50:32;;;;;;;;;;;;;;;11.98;44.58;99930.25;4989412;28;6803;-73
2022/04/12 04:53:02;;;;;;;;;;;;;;;12.00;44.60;99924.34;4994336;28;6800;-74
2022/04/12 04:55:28;;;;;;;;;;;;;;;12.02;44.68;99925.31;4995295;28;6839;-74
2022/04/12 04:57:59;;;;;;;;;;;;;;;12.02;44.48;99932.09;4993886;28;6891;-74
2022/04/12 05:00:29;;;;;;;;;;;;;;;12.02;44.27;99926.94;4978241;28;6864;-73
2022/04/12 05:02:57;;;;;;;;;;;;;;;12.00;44.66;99921.78;4992616;28;7168;-73
2022/04/12 05:05:23;;;;;;;;;;;;;;;11.99;44.72;99917.47;4974782;28;6965;-73
2022/04/12 05:07:52;;;;;;;;;;;;;;;11.97;44.87;99919.09;4993325;28;6804;-73
2022/04/12 05:10:23;;;;;;;;;;;;;;;11.97;44.61;99931.94;4975523;28;6975;-73
2022/04/12 05:12:49;;;;;;;;;;;;;;;11.95;44.86;99947.31;4995358;28;6816;-73
2022/04/12 05:15:15;;;;;;;;;;;;;;;11.94;45.08;99943.00;4995103;28;7051;-73
2022/04/12 05:17:51;;;;;;;;;;;;;;;11.92;45.04;99952.31;4974636;28;6816;-73
2022/04/12 05:20:22;;;;;;;;;;;;;;;11.91;44.48;99971.09;4994460;28;7203;-73
2022/04/12 05:22:49;;;;;;;;;;;;;;;11.90;44.66;99966.78;4978134;28;6792;-73
2022/04/12 05:25:15;;;;;;;;;;;;;;;11.90;45.15;99971.06;4993470;28;7173;-74
2022/04/12 05:27:43;;;;;;;;;;;;;;;11.92;44.92;99977.13;4994351;28;6823;-73
2022/04/12 05:30:16;;;;;;;;;;;;;;;11.92;45.34;99974.56;4994646;28;7003;-73
2022/04/12 05:32:42;;;;;;;;;;;;;;;11.92;45.36;99964.28;5010100;28;6812;-73
2022/04/12 05:35:10;;;;;;;;;;;;;;;11.93;45.23;99958.34;4974959;28;6804;-73
2022/04/12 05:37:48;;;;;;;;;;;;;;;11.95;45.62;99962.72;4974877;28;6966;-73
2022/04/12 05:40:15;;;;;;;;;;;;;;;11.99;45.97;99957.66;4995744;28;6872;-73
2022/04/12 05:42:42;;;;;;;;;;;;;;;12.03;45.08;99957.88;4994062;28;6804;-73
2022/04/12 05:45:09;;;;;;;;;;;;;;;12.10;45.30;99952.97;5010939;28;7152;-73
2022/04/12 05:47:49;;;;;;;;;;;;;;;12.17;45.67;99957.50;4976659;28;7187;-73
2022/04/12 05:50:17;;;;;;;;;;;;;;;12.22;45.52;99956.81;4992608;28;6815;-73
2022/04/12 05:52:44;;;;;;;;;;;;;;;12.30;45.83;99959.66;4991764;28;7176;-73
2022/04/12 05:55:15;;;;;;;;;;;;;;;12.38;45.17;99957.31;4977760;28;6804;-73
2022/04/12 05:58:01;;;;;;;;;;;;;;;12.51;45.15;99966.31;4995112;28;6808;-73
2022/04/12 06:00:30;;;;;;;;;;;;;;;12.59;45.00;99970.03;4995370;28;7311;-73
2022/04/12 06:02:59;;;;;;;;;;;;;;;12.70;45.55;99975.53;4976796;28;6954;-73
2022/04/12 06:05:32;;;;;;;;;;;;;;;12.79;44.94;99974.94;4995162;28;6904;-73
2022/04/12 06:07:59;;;;;;;;;;;;;;;12.89;45.55;99976.09;4977609;28;6800;-73
2022/04/12 06:10:26;;;;;;;;;;;;;;;12.97;45.60;99977.22;4987111;28;7143;-73
2022/04/12 06:12:51;;;;;;;;;;;;;;;13.02;45.44;99962.81;5009735;28;7130;-73
2022/04/12 06:15:19;;;;;;;;;;;;;;;13.11;45.71;99967.34;5009454;28;6958;-73
2022/04/12 06:17:45;;;;;;;;;;;;;;;13.19;45.19;99971.03;4977453;28;6864;-73
2022/04/12 06:20:14;;;;;;;;;;;;;;;13.28;45.55;99967.00;4974445;28;6851;-73
2022/04/12 06:22:41;;;;;;;;;;;;;;;13.36;45.65;99969.78;4994439;28;6953;-73
2022/04/12 06:25:19;;;;;;;;;;;;;;;13.44;44.90;99969.25;4977622;28;7048;-73
2022/04/12 06:27:50;;;;;;;;;;;;;;;13.52;45.59;99966.00;4991462;28;7172;-73
2022/04/12 06:30:21;;;;;;;;;;;;;;;13.59;45.08;99962.78;4991144;28;6943;-73
2022/04/12 06:32:47;;;;;;;;;;;;;;;13.66;45.41;99962.13;4989507;28;6791;-74
2022/04/12 06:35:13;;;;;;;;;;;;;;;13.73;45.06;99968.31;4985805;28;6780;-74
2022/04/12 06:37:42;;;;;;;;;;;;;;;13.82;44.64;99972.88;4987596;28;6961;-74
2022/04/12 06:40:10;;;;;;;;;;;;;;;13.89;44.66;99964.47;4987019;28;6955;-74
2022/04/12 06:42:37;;;;;;;;;;;;;;;13.97;44.53;99968.13;4969511;28;6804;-74
2022/04/12 06:45:04;;;;;;;;;;;;;;;14.06;44.50;99964.06;4988930;28;6823;-73
2022/04/12 06:47:29;;;;;;;;;;;;;;;14.15;43.79;99961.72;4989585;28;6812;-73
2022/04/12 06:49:57;;;;;;;;;;;;;;;14.25;44.66;99957.69;4976650;28;6894;-73
2022/04/12 06:52:23;;;;;;;;;;;;;;;14.36;44.53;99973.41;4993020;28;6792;-74
2022/04/12 06:54:50;;;;;;;;;;;;;;;14.44;44.59;99966.75;4995192;28;6832;-74
2022/04/12 06:57:17;;;;;;;;;;;;;;;14.54;43.79;99973.03;4995338;28;6872;-73
2022/04/12 06:59:43;;;;;;;;;;;;;;;14.64;43.92;99966.38;4994568;28;7192;-73
2022/04/12 07:02:26;;;;;;;;;;;;;;;14.75;44.48;99959.78;4996157;28;6808;-73
2022/04/12 07:04:52;;;;;;;;;;;;;;;14.84;44.17;99954.84;4981113;28;6983;-73
2022/04/12 07:07:18;;;;;;;;;;;;;;;14.97;43.33;99960.31;4984441;28;6934;-73
2022/04/12 07:09:43;;;;;;;;;;;;;;;15.09;43.56;99958.00;4974333;28;6948;-73
2022/04/12 07:12:09;;;;;;;;;;;;;;;15.27;43.71;99965.28;4998285;28;7151;-73
2022/04/12 07:14:36;;;;;;;;;;;;;;;15.44;44.05;99956.13;4976573;28;7204;-73
2022/04/12 07:17:03;;;;;;;;;;;;;;;15.66;43.18;99960.94;4998853;28;7270;-73
2022/04/12 07:19:29;;;;;;;;;;;;;;;15.91;43.55;99961.41;4998770;28;7043;-73
2022/04/12 07:22:01;;;;;;;;;;;;;;;16.19;42.98;99964.53;4980286;28;6923;-73
2022/04/12 07:24:27;;;;;;;;;;;;;;;16.43;42.84;99957.16;4980119;28;7075;-73
2022/04/12 07:26:53;;;;;;;;;;;;;;;16.66;42.27;99954.97;4999297;28;6953;-73
2022/04/12 07:29:18;;;;;;;;;;;;;;;16.86;42.30;99946.63;5013818;28;7032;-73
2022/04/12 07:31:44;;;;;;;;;;;;;;;17.06;41.42;99946.97;4999064;28;7024;-73
2022/04/12 07:34:10;;;;;;;;;;;;;;;17.21;41.39;99947.16;5001036;28;6787;-73
2022/04/12 07:36:39;;;;;;;;;;;;;;;17.34;41.30;99939.56;4983886;28;6837;-73
2022/04/12 07:39:08;;;;;;;;;;;;;;;17.48;41.29;99942.34;4983565;28;7224;-73
2022/04/12 07:41:34;;;;;;;;;;;;;;;17.60;41.16;99941.59;5000010;28;6796;-73
2022/04/12 07:43:59;;;;;;;;;;;;;;;17.68;40.73;99944.31;4964591;28;6981;-73
2022/04/12 07:46:26;;;;;;;;;;;;;;;17.73;40.83;99940.03;5005249;28;6804;-73
2022/04/12 07:48:54;;;;;;;;;;;;;;;17.76;40.75;99938.34;5002159;28;6925;-73
2022/04/12 07:51:20;;;;;;;;;;;;;;;17.78;40.71;99933.19;4999608;28;6984;-73
2022/04/12 07:53:46;;;;;;;;;;;;;;;17.82;40.04;99940.13;5000518;28;6775;-74
2022/04/12 07:56:11;;;;;;;;;;;;;;;17.84;40.38;99929.78;4999179;28;7167;-73
2022/04/12 07:58:38;;;;;;;;;;;;;;;17.88;40.05;99923.75;4999853;28;6807;-73
2022/04/12 08:01:04;;;;;;;;;;;;;;;17.91;40.31;99921.19;5000040;28;6970;-73
2022/04/12 08:03:29;;;;;;;;;;;;;;;17.95;40.18;99922.09;4987604;28;9076;-73
2022/04/12 08:05:55;;;;;;;;;;;;;;;17.98;39.84;99925.59;5001620;28;6791;-73
2022/04/12 08:08:21;;;;;;;;;;;;;;;18.04;40.40;99935.19;4998166;28;7026;-73
2022/04/12 08:10:47;;;;;;;;;;;;;;;18.11;39.81;99939.59;4999369;28;6784;-73
2022/04/12 08:13:12;;;;;;;;;;;;;;;18.21;40.34;99937.06;4993182;28;6811;-73
2022/04/12 08:15:38;;;;;;;;;;;;;;;18.28;39.89;99946.66;4999502;28;6953;-73
2022/04/12 08:18:07;;;;;;;;;;;;;;;18.36;39.74;99932.03;5000165;28;6946;-73
2022/04/12 08:20:36;;;;;;;;;;;;;;;18.51;39.55;99943.38;5000886;28;8118;-74
2022/04/12 08:23:02;;;;;;;;;;;;;;;18.63;39.54;99933.09;5001307;28;6931;-73
2022/04/12 08:25:28;;;;;;;;;;;;;;;18.78;40.00;99934.06;5011505;28;7117;-73
2022/04/12 08:28:00;;;;;;;;;;;;;;;18.93;39.21;99935.91;4982092;28;7051;-73
2022/04/12 08:30:26;;;;;;;;;;;;;;;19.07;39.82;99943.81;4996701;28;6998;-73
2022/04/12 08:32:52;;;;;;;;;;;;;;;19.18;39.52;99933.50;4995029;28;6845;-73
2022/04/12 08:35:18;;;;;;;;;;;;;;;19.30;39.43;99925.75;4999434;28;7081;-73
2022/04/12 08:37:44;;;;;;;;;;;;;;;19.42;39.15;99927.53;4998056;28;7734;-73
2022/04/12 08:40:11;;;;;;;;;;;;;;;19.59;39.49;99939.69;4994589;28;6945;-73
2022/04/12 08:42:37;;;;;;;;;;;;;;;19.75;38.88;99935.41;4995372;28;6808;-73
2022/04/12 08:45:07;;;;;;;;;;;;;;;19.89;38.73;99922.44;4980570;28;6871;-73
2022/04/12 08:47:36;;;;;;;;;;;;;;;20.04;38.94;99919.03;4997171;28;7289;-73
2022/04/12 08:50:05;;;;;;;;;;;;;;;20.18;38.42;99921.66;4993735;28;7025;-73
2022/04/12 08:52:31;;;;;;;;;;;;;;;20.28;38.40;99915.63;4998119;28;6780;-73
2022/04/12 08:54:58;;;;;;;;;;;;;;;20.39;38.07;99926.88;4992540;28;6800;-74
2022/04/12 08:57:25;;;;;;;;;;;;;;;20.51;37.84;99925.16;5013225;28;6945;-73
2022/04/12 08:59:51;;;;;;;;;;;;;;;20.63;37.88;99914.72;4993396;28;7019;-73
2022/04/12 09:02:16;;;;;;;;;;;;;;;20.75;37.74;99913.84;4978408;28;7232;-74
2022/04/12 09:04:42;;;;;;;;;;;;;;;20.89;37.91;99910.34;5003143;28;7405;-74
2022/04/12 09:07:12;;;;;;;;;;;;;;;21.03;37.73;99908.59;4972017;28;7053;-74
2022/04/12 09:09:40;;;;;;;;;;;;;;;21.16;37.25;99903.34;4975355;28;6792;-74
2022/04/12 09:12:10;;;;;;;;;;;;;;;21.31;37.12;99902.41;4969545;28;7001;-74
2022/04/12 09:14:52;;;;;;;;;;;;;;;21.50;37.45;99898.84;4993063;28;6784;-74
2022/04/12 09:17:35;;;;;;;;;;;;;;;21.69;37.02;99906.59;5006095;28;7148;-74
2022/04/12 09:20:18;;;;;;;;;;;;;;;21.91;36.71;99909.94;4989552;28;7032;-74
2022/04/12 09:22:45;;;;;;;;;;;;;;;22.13;36.60;99893.28;4990395;28;6812;-74
2022/04/12 09:25:11;;;;;;;;;;;;;;;22.36;36.69;99879.16;5008750;28;6841;-74
2022/04/12 09:27:38;;;;;;;;;;;;;;;22.57;36.36;99880.75;4989882;28;7194;-73
2022/04/12 09:30:09;;;;;;;;;;;;;;;22.77;35.42;99877.06;4990575;28;6804;-73
2022/04/12 09:32:46;;;;;;;;;;;;;;;22.99;35.60;99877.69;4993348;28;6880;-73
2022/04/12 09:35:16;;;;;;;;;;;;;;;23.19;35.38;99881.81;4972180;28;7248;-73
2022/04/12 09:37:45;;;;;;;;;;;;;;;23.42;35.14;99885.00;4990155;28;8060;-73
2022/04/12 09:40:16;;;;;;;;;;;;;;;23.75;35.08;99881.06;4992504;28;6886;-73
2022/04/12 09:42:50;;;;;;;;;;;;;;;24.20;35.12;99864.72;4993023;28;7082;-73
2022/04/12 09:45:26;;;;;;;;;;;;;;;24.92;34.03;99866.91;4973632;28;7169;-73
2022/04/12 09:47:57;;;;;;;;;;;;;;;25.78;33.16;99858.06;5008588;28;6808;-73
2022/04/12 09:50:29;;;;;;;;;;;;;;;26.78;32.70;99859.03;4993157;28;6890;-73
2022/04/12 09:53:09;;;;;;;;;;;;;;;27.82;31.82;99858.66;4993841;28;6792;-73
2022/04/12 09:55:49;;;;;;;;;;;;;;;28.85;30.11;99852.56;4987677;28;6951;-73
2022/04/12 09:58:22;;;;;;;;;;;;;;;29.59;29.62;99848.03;4968792;28;6891;-73
2022/04/12 10:00:47;;;;;;;;;;;;;;;30.10;29.44;99843.34;4973415;28;6896;-73
2022/04/12 10:03:19;;;;;;;;;;;;;;;30.46;28.47;99841.81;4987131;28;6876;-72
2022/04/12 10:05:47;;;;;;;;;;;;;;;30.67;27.76;99831.22;4971530;28;6880;-72
2022/04/12 10:08:19;;;;;;;;;;;;;;;30.88;27.71;99830.25;5004137;28;7061;-71
2022/04/12 10:10:45;;;;;;;;;;;;;;;31.18;27.66;99837.66;4988801;28;7315;-71
2022/04/12 10:13:15;;;;;;;;;;;;;;;31.41;26.73;99830.47;4989586;28;6800;-71
2022/04/12 10:15:44;;;;;;;;;;;;;;;31.67;26.64;99828.31;4973096;28;8146;-71
2022/04/12 10:18:15;;;;;;;;;;;;;;;31.96;26.00;99828.69;5006182;28;6787;-71
2022/04/12 10:20:44;;;;;;;;;;;;;;;32.26;25.62;99817.47;4989694;28;6831;-71
2022/04/12 10:23:10;;;;;;;;;;;;;;;32.48;25.41;99815.47;4989416;28;7363;-71
2022/04/12 10:25:37;;;;;;;;;;;;;;;32.63;25.27;99816.47;4993421;28;6967;-71
2022/04/12 10:28:05;;;;;;;;;;;;;;;32.74;25.18;99814.09;4962955;28;7206;-71
2022/04/12 10:30:37;;;;;;;;;;;;;;;32.87;24.47;99814.25;4976823;28;7389;-71
2022/04/12 10:33:24;;;;;;;;;;;;;;;33.06;24.52;99815.94;4958826;28;7011;-71
2022/04/12 10:35:54;;;;;;;;;;;;;;;33.30;23.97;99805.72;4996273;28;6816;-71
2022/04/12 10:38:37;;;;;;;;;;;;;;;33.53;23.77;99806.25;4996012;28;6873;-71
2022/04/12 10:41:17;;;;;;;;;;;;;;;33.74;23.60;99808.59;4980918;28;7270;-71
2022/04/12 10:43:43;;;;;;;;;;;;;;;33.89;23.63;99813.00;4992165;28;6795;-71
2022/04/12 10:46:11;;;;;;;;;;;;;;;33.93;23.31;99808.38;4987898;28;6868;-71
2022/04/12 10:48:37;;;;;;;;;;;;;;;33.79;23.55;99801.22;4987907;28;7336;-71
2022/04/12 10:51:06;;;;;;;;;;;;;;;33.51;22.93;99792.19;4989398;28;6784;-71
2022/04/12 10:53:38;;;;;;;;;;;;;;;33.20;23.25;99794.81;4987124;28;7161;-71
2022/04/12 10:56:14;;;;;;;;;;;;;;;32.87;23.21;99793.03;4990098;28;7030;-71
2022/04/12 10:58:43;;;;;;;;;;;;;;;32.69;23.67;99794.91;4985282;28;6820;-71
2022/04/12 11:01:35;;;;;;;;;;;;;;;32.75;23.87;99794.59;4985063;28;6799;-71
2022/04/12 11:04:05;;;;;;;;;;;;;;;33.05;23.78;99788.56;4983377;28;7384;-71
2022/04/12 11:06:33;;;;;;;;;;;;;;;33.49;23.41;99783.47;4987864;28;7200;-71
2022/04/12 11:09:11;;;;;;;;;;;;;;;34.00;22.93;99783.16;4999960;28;6808;-71
2022/04/12 11:11:41;;;;;;;;;;;;;;;34.33;22.10;99774.09;4982395;28;7030;-71
2022/04/12 11:14:38;;;;;;;;;;;;;;;34.56;22.27;99779.81;4984935;28;7134;-71
2022/04/12 11:17:10;;;;;;;;;;;;;;;34.74;21.61;99771.63;4985301;28;6808;-71
2022/04/12 11:19:47;;;;;;;;;;;;;;;34.86;21.04;99768.16;4986880;28;7074;-71
2022/04/12 11:22:18;;;;;;;;;;;;;;;35.01;21.06;99771.63;4991428;28;6812;-71
2022/04/12 11:25:16;;;;;;;;;;;;;;;35.24;21.07;99773.78;4969804;28;7270;-71
2022/04/12 11:27:42;;;;;;;;;;;;;;;35.49;20.80;99773.00;4986528;28;6800;-71
2022/04/12 11:30:13;;;;;;;;;;;;;;;35.64;20.57;99781.81;4989856;28;7186;-71
2022/04/12 11:32:40;;;;;;;;;;;;;;;35.59;20.87;99779.47;4982130;28;6950;-71
2022/04/12 11:35:09;;;;;;;;;;;;;;;35.58;21.23;99782.22;4980308;28;7121;-71
2022/04/12 11:37:40;;;;;;;;;;;;;;;35.58;21.30;99780.41;4983784;28;6820;-71
2022/04/12 11:40:06;;;;;;;;;;;;;;;35.39;20.93;99772.75;4972614;28;7916;-71
2022/04/12 11:42:33;;;;;;;;;;;;;;;34.82;20.27;99769.31;4989184;28;7074;-71
2022/04/12 11:44:59;;;;;;;;;;;;;;;34.08;20.26;99766.75;4983567;28;7056;-72
2022/04/12 11:47:33;;;;;;;;;;;;;;;33.49;20.54;99772.84;5000272;28;7931;-71
2022/04/12 11:50:00;;;;;;;;;;;;;;;33.13;20.97;99769.53;4986658;28;6804;-71
2022/04/12 11:52:27;;;;;;;;;;;;;;;32.78;20.88;99764.38;4986807;28;7320;-71
2022/04/12 11:54:58;;;;;;;;;;;;;;;32.45;21.49;99757.31;4969006;28;6803;-71
2022/04/12 11:57:24;;;;;;;;;;;;;;;32.23;21.42;99767.25;4988554;28;7198;-71
2022/04/12 11:59:53;;;;;;;;;;;;;;;32.20;21.64;99764.75;4986774;28;7276;-71
2022/04/12 12:02:27;;;;;;;;;;;;;;;32.34;21.97;99763.16;4997221;28;6888;-71
2022/04/12 12:05:11;;;;;;;;;;;;;;;32.75;21.42;99770.72;4988475;28;6843;-71
2022/04/12 12:07:39;;;;;;;;;;;;;;;33.24;21.49;99761.81;4974341;28;7142;-71
2022/04/12 12:10:12;;;;;;;;;;;;;;;33.69;20.86;99760.19;4990749;28;6868;-71
2022/04/12 12:12:42;;;;;;;;;;;;;;;34.00;20.65;99755.75;4990159;28;6880;-71
2022/04/12 12:15:17;;;;;;;;;;;;;;;34.23;20.31;99762.28;4993334;28;6803;-71
2022/04/12 12:17:45;;;;;;;;;;;;;;;34.41;20.39;99760.31;4996268;28;6787;-71
2022/04/12 12:20:12;;;;;;;;;;;;;;;34.57;20.31;99770.00;4978153;28;7176;-71
2022/04/12 12:22:42;;;;;;;;;;;;;;;34.63;19.87;99772.28;4992182;28;7023;-72
2022/04/12 12:25:10;;;;;;;;;;;;;;;34.65;19.54;99766.88;4970582;28;6991;-71
2022/04/12 12:27:41;;;;;;;;;;;;;;;34.73;20.12;99756.59;4991112;28;6880;-72
2022/04/12 12:30:14;;;;;;;;;;;;;;;34.88;19.49;99758.25;4993738;28;6800;-72
2022/04/12 12:32:42;;;;;;;;;;;;;;;35.01;19.53;99757.47;4974340;28;7063;-72
2022/04/12 12:35:15;;;;;;;;;;;;;;;35.14;19.35;99754.88;4990229;28;6800;-72
2022/04/12 12:37:43;;;;;;;;;;;;;;;35.21;19.10;99750.88;4992423;28;7477;-72
2022/04/12 12:40:27;;;;;;;;;;;;;;;35.15;19.41;99753.94;4993707;28;6800;-72
2022/04/12 12:42:55;;;;;;;;;;;;;;;35.09;19.98;99762.34;4993459;28;6808;-72
2022/04/12 12:45:24;;;;;;;;;;;;;;;35.07;19.93;99762.44;4992803;28;6958;-72
2022/04/12 12:47:53;;;;;;;;;;;;;;;35.16;19.28;99764.50;4991167;28;6803;-72
2022/04/12 12:50:22;;;;;;;;;;;;;;;35.29;19.26;99756.56;4986489;28;6811;-72
2022/04/12 12:52:56;;;;;;;;;;;;;;;35.40;19.36;99752.31;5008839;28;7134;-72
2022/04/12 12:55:23;;;;;;;;;;;;;;;35.48;18.93;99757.13;4975073;28;7206;-72
2022/04/12 12:57:50;;;;;;;;;;;;;;;35.43;18.39;99750.31;4959046;28;6983;-72
2022/04/12 13:00:25;;;;;;;;;;;;;;;35.25;19.07;99757.72;5008997;28;6812;-72
2022/04/12 13:03:09;;;;;;;;;;;;;;;35.06;18.72;99754.53;5004073;28;7031;-72
2022/04/12 13:05:36;;;;;;;;;;;;;;;35.04;19.04;99746.63;4978417;28;7341;-72